sensor_id;sensor_type;location;lat;lon;timestamp;P1;durP1;ratioP1;P2;durP2;ratioP2
19609;SDS011;9952;47.122;-1.638;2023-03-23T00:03:21;8.27;;;2.20;;
19609;SDS011;9952;47.122;-1.638;2023-03-23T00:08:02;13.60;;;2.00;;
19609;SDS011;9952;47.122;-1.638;2023-03-23T00:12:43;12.40;;;2.57;;
19609;SDS011;9952;47.122;-1.638;2023-03-23T00:17:25;10.70;;;2.40;;
19609;SDS011;9952;47.122;-1.638;2023-03-23T00:22:05;8.77;;;2.10;;
19609;SDS011;9952;47.122;-1.638;2023-03-23T00:26:47;6.37;;;1.43;;
19609;SDS011;9952;47.122;-1.638;2023-03-23T00:31:29;8.57;;;1.37;;
19609;SDS011;9952;47.122;-1.638;2023-03-23T00:36:15;6.13;;;1.47;;
19609;SDS011;9952;47.122;-1.638;2023-03-23T00:40:57;9.30;;;1.90;;
19609;SDS011;9952;47.122;-1.638;2023-03-23T00:45:44;8.87;;;1.97;;
19609;SDS011;9952;47.122;-1.638;2023-03-23T00:50:32;10.07;;;1.93;;
19609;SDS011;9952;47.122;-1.638;2023-03-23T00:55:13;8.07;;;1.63;;
19609;SDS011;9952;47.122;-1.638;2023-03-23T00:59:53;6.40;;;1.30;;
19609;SDS011;9952;47.122;-1.638;2023-03-23T01:04:34;10.63;;;1.47;;
19609;SDS011;9952;47.122;-1.638;2023-03-23T01:09:19;11.40;;;1.97;;
19609;SDS011;9952;47.122;-1.638;2023-03-23T01:14:01;11.17;;;1.47;;
19609;SDS011;9952;47.122;-1.638;2023-03-23T01:18:42;13.57;;;1.77;;
19609;SDS011;9952;47.122;-1.638;2023-03-23T01:23:23;11.13;;;1.87;;
19609;SDS011;9952;47.122;-1.638;2023-03-23T01:28:04;7.10;;;1.77;;
19609;SDS011;9952;47.122;-1.638;2023-03-23T01:32:44;7.40;;;1.50;;
19609;SDS011;9952;47.122;-1.638;2023-03-23T01:37:25;8.40;;;1.80;;
19609;SDS011;9952;47.122;-1.638;2023-03-23T01:42:07;13.80;;;1.80;;
19609;SDS011;9952;47.122;-1.638;2023-03-23T01:46:49;8.80;;;1.73;;
19609;SDS011;9952;47.122;-1.638;2023-03-23T01:51:30;9.37;;;1.87;;
19609;SDS011;9952;47.122;-1.638;2023-03-23T01:56:11;7.53;;;1.40;;
19609;SDS011;9952;47.122;-1.638;2023-03-23T02:00:55;7.67;;;1.43;;
19609;SDS011;9952;47.122;-1.638;2023-03-23T02:05:40;11.27;;;2.00;;
19609;SDS011;9952;47.122;-1.638;2023-03-23T02:10:22;7.90;;;1.70;;
19609;SDS011;9952;47.122;-1.638;2023-03-23T02:15:03;10.57;;;1.63;;
19609;SDS011;9952;47.122;-1.638;2023-03-23T02:29:54;11.67;;;2.57;;
19609;SDS011;9952;47.122;-1.638;2023-03-23T02:40:09;8.43;;;2.33;;
19609;SDS011;9952;47.122;-1.638;2023-03-23T02:44:57;10.63;;;2.57;;
19609;SDS011;9952;47.122;-1.638;2023-03-23T02:49:43;11.37;;;3.03;;
19609;SDS011;9952;47.122;-1.638;2023-03-23T02:54:25;11.57;;;2.30;;
19609;SDS011;9952;47.122;-1.638;2023-03-23T02:59:07;18.57;;;2.50;;
19609;SDS011;9952;47.122;-1.638;2023-03-23T03:03:48;14.23;;;2.90;;
19609;SDS011;9952;47.122;-1.638;2023-03-23T03:08:43;14.27;;;2.50;;
19609;SDS011;9952;47.122;-1.638;2023-03-23T03:13:48;11.80;;;2.37;;
19609;SDS011;9952;47.122;-1.638;2023-03-23T03:18:43;10.40;;;2.77;;
19609;SDS011;9952;47.122;-1.638;2023-03-23T03:23:48;15.33;;;2.83;;
19609;SDS011;9952;47.122;-1.638;2023-03-23T03:28:31;14.90;;;2.90;;
19609;SDS011;9952;47.122;-1.638;2023-03-23T03:33:13;19.13;;;3.37;;
19609;SDS011;9952;47.122;-1.638;2023-03-23T03:37:54;13.97;;;2.83;;
19609;SDS011;9952;47.122;-1.638;2023-03-23T03:42:35;14.27;;;2.73;;
19609;SDS011;9952;47.122;-1.638;2023-03-23T03:47:20;17.77;;;2.73;;
19609;SDS011;9952;47.122;-1.638;2023-03-23T03:52:01;13.27;;;2.70;;
19609;SDS011;9952;47.122;-1.638;2023-03-23T03:56:42;15.37;;;2.90;;
19609;SDS011;9952;47.122;-1.638;2023-03-23T04:01:22;17.97;;;3.73;;
19609;SDS011;9952;47.122;-1.638;2023-03-23T04:06:04;16.07;;;2.60;;
19609;SDS011;9952;47.122;-1.638;2023-03-23T04:10:45;14.07;;;2.93;;
19609;SDS011;9952;47.122;-1.638;2023-03-23T04:15:27;10.07;;;2.30;;
19609;SDS011;9952;47.122;-1.638;2023-03-23T04:20:09;11.33;;;2.43;;
19609;SDS011;9952;47.122;-1.638;2023-03-23T04:25:09;13.33;;;2.73;;
19609;SDS011;9952;47.122;-1.638;2023-03-23T04:29:52;16.07;;;2.43;;
19609;SDS011;9952;47.122;-1.638;2023-03-23T04:34:34;12.00;;;3.00;;
19609;SDS011;9952;47.122;-1.638;2023-03-23T04:39:15;18.07;;;2.50;;
19609;SDS011;9952;47.122;-1.638;2023-03-23T04:43:56;11.23;;;2.47;;
19609;SDS011;9952;47.122;-1.638;2023-03-23T04:48:36;17.20;;;2.87;;
19609;SDS011;9952;47.122;-1.638;2023-03-23T04:53:19;17.97;;;2.57;;
19609;SDS011;9952;47.122;-1.638;2023-03-23T04:57:59;16.73;;;2.30;;
19609;SDS011;9952;47.122;-1.638;2023-03-23T05:02:41;14.53;;;2.57;;
19609;SDS011;9952;47.122;-1.638;2023-03-23T05:07:23;15.53;;;2.30;;
19609;SDS011;9952;47.122;-1.638;2023-03-23T05:12:05;17.33;;;3.00;;
19609;SDS011;9952;47.122;-1.638;2023-03-23T05:16:47;13.03;;;2.53;;
19609;SDS011;9952;47.122;-1.638;2023-03-23T05:21:28;19.07;;;2.57;;
19609;SDS011;9952;47.122;-1.638;2023-03-23T05:26:09;17.07;;;2.30;;
19609;SDS011;9952;47.122;-1.638;2023-03-23T05:30:50;21.33;;;2.47;;
19609;SDS011;9952;47.122;-1.638;2023-03-23T05:35:32;14.77;;;2.43;;
19609;SDS011;9952;47.122;-1.638;2023-03-23T05:40:13;14.57;;;2.27;;
19609;SDS011;9952;47.122;-1.638;2023-03-23T05:44:54;18.60;;;2.43;;
19609;SDS011;9952;47.122;-1.638;2023-03-23T05:49:34;21.33;;;2.80;;
19609;SDS011;9952;47.122;-1.638;2023-03-23T05:54:16;9.93;;;3.10;;
19609;SDS011;9952;47.122;-1.638;2023-03-23T05:58:57;17.90;;;2.80;;
19609;SDS011;9952;47.122;-1.638;2023-03-23T06:03:38;17.20;;;3.30;;
19609;SDS011;9952;47.122;-1.638;2023-03-23T06:08:19;12.60;;;2.23;;
19609;SDS011;9952;47.122;-1.638;2023-03-23T06:13:00;25.13;;;3.13;;
19609;SDS011;9952;47.122;-1.638;2023-03-23T06:17:42;14.60;;;2.70;;
19609;SDS011;9952;47.122;-1.638;2023-03-23T06:22:23;21.60;;;3.50;;
19609;SDS011;9952;47.122;-1.638;2023-03-23T06:27:03;16.67;;;2.70;;
19609;SDS011;9952;47.122;-1.638;2023-03-23T06:31:45;15.93;;;2.63;;
19609;SDS011;9952;47.122;-1.638;2023-03-23T06:36:28;13.10;;;2.20;;
19609;SDS011;9952;47.122;-1.638;2023-03-23T06:41:09;15.63;;;2.63;;
19609;SDS011;9952;47.122;-1.638;2023-03-23T06:45:51;18.13;;;2.63;;
19609;SDS011;9952;47.122;-1.638;2023-03-23T06:50:32;15.47;;;2.50;;
19609;SDS011;9952;47.122;-1.638;2023-03-23T06:55:13;13.53;;;2.30;;
19609;SDS011;9952;47.122;-1.638;2023-03-23T06:59:54;25.53;;;3.13;;
19609;SDS011;9952;47.122;-1.638;2023-03-23T07:04:35;18.77;;;2.87;;
19609;SDS011;9952;47.122;-1.638;2023-03-23T07:09:17;20.20;;;3.00;;
19609;SDS011;9952;47.122;-1.638;2023-03-23T07:13:58;18.03;;;3.00;;
19609;SDS011;9952;47.122;-1.638;2023-03-23T07:18:39;29.57;;;3.73;;
19609;SDS011;9952;47.122;-1.638;2023-03-23T07:23:19;18.47;;;3.00;;
19609;SDS011;9952;47.122;-1.638;2023-03-23T07:28:01;20.63;;;3.27;;
19609;SDS011;9952;47.122;-1.638;2023-03-23T07:32:43;24.13;;;4.60;;
19609;SDS011;9952;47.122;-1.638;2023-03-23T07:37:24;24.60;;;3.67;;
19609;SDS011;9952;47.122;-1.638;2023-03-23T07:42:05;21.83;;;2.80;;
19609;SDS011;9952;47.122;-1.638;2023-03-23T07:46:47;21.20;;;4.20;;
19609;SDS011;9952;47.122;-1.638;2023-03-23T07:51:28;19.17;;;3.80;;
19609;SDS011;9952;47.122;-1.638;2023-03-23T07:56:09;23.43;;;3.43;;
19609;SDS011;9952;47.122;-1.638;2023-03-23T08:00:54;21.60;;;3.40;;
19609;SDS011;9952;47.122;-1.638;2023-03-23T08:05:37;29.43;;;4.13;;
19609;SDS011;9952;47.122;-1.638;2023-03-23T08:10:18;25.67;;;3.30;;
19609;SDS011;9952;47.122;-1.638;2023-03-23T08:15:02;17.23;;;3.70;;
19609;SDS011;9952;47.122;-1.638;2023-03-23T08:19:44;23.63;;;4.17;;
19609;SDS011;9952;47.122;-1.638;2023-03-23T08:24:25;24.03;;;4.40;;
19609;SDS011;9952;47.122;-1.638;2023-03-23T08:29:07;23.83;;;3.80;;
19609;SDS011;9952;47.122;-1.638;2023-03-23T08:33:48;23.40;;;4.13;;
19609;SDS011;9952;47.122;-1.638;2023-03-23T08:38:29;24.30;;;4.13;;
19609;SDS011;9952;47.122;-1.638;2023-03-23T08:43:11;21.03;;;4.17;;
19609;SDS011;9952;47.122;-1.638;2023-03-23T08:47:52;23.53;;;4.23;;
19609;SDS011;9952;47.122;-1.638;2023-03-23T08:52:34;22.10;;;4.13;;
19609;SDS011;9952;47.122;-1.638;2023-03-23T08:57:15;31.17;;;3.67;;
19609;SDS011;9952;47.122;-1.638;2023-03-23T09:02:01;23.37;;;4.67;;
19609;SDS011;9952;47.122;-1.638;2023-03-23T09:06:41;18.27;;;3.30;;
19609;SDS011;9952;47.122;-1.638;2023-03-23T09:11:22;23.53;;;4.00;;
19609;SDS011;9952;47.122;-1.638;2023-03-23T09:16:04;21.13;;;3.77;;
19609;SDS011;9952;47.122;-1.638;2023-03-23T09:20:46;20.70;;;3.77;;
19609;SDS011;9952;47.122;-1.638;2023-03-23T09:25:29;21.13;;;3.73;;
19609;SDS011;9952;47.122;-1.638;2023-03-23T09:30:10;24.83;;;3.93;;
19609;SDS011;9952;47.122;-1.638;2023-03-23T09:34:52;28.03;;;4.33;;
19609;SDS011;9952;47.122;-1.638;2023-03-23T09:39:35;20.77;;;3.63;;
19609;SDS011;9952;47.122;-1.638;2023-03-23T09:54:14;28.60;;;4.30;;
19609;SDS011;9952;47.122;-1.638;2023-03-23T10:04:33;28.10;;;4.50;;
19609;SDS011;9952;47.122;-1.638;2023-03-23T10:09:18;35.50;;;4.43;;
19609;SDS011;9952;47.122;-1.638;2023-03-23T10:18:41;22.40;;;4.00;;
19609;SDS011;9952;47.122;-1.638;2023-03-23T10:23:40;22.50;;;4.10;;
19609;SDS011;9952;47.122;-1.638;2023-03-23T10:28:35;22.83;;;3.23;;
19609;SDS011;9952;47.122;-1.638;2023-03-23T10:38:09;23.40;;;4.13;;
19609;SDS011;9952;47.122;-1.638;2023-03-23T10:42:53;17.13;;;3.90;;
19609;SDS011;9952;47.122;-1.638;2023-03-23T10:47:35;28.83;;;4.80;;
19609;SDS011;9952;47.122;-1.638;2023-03-23T10:52:38;21.30;;;3.73;;
19609;SDS011;9952;47.122;-1.638;2023-03-23T10:57:27;29.70;;;4.90;;
19609;SDS011;9952;47.122;-1.638;2023-03-23T11:02:13;19.73;;;3.97;;
19609;SDS011;9952;47.122;-1.638;2023-03-23T11:07:00;25.00;;;3.70;;
19609;SDS011;9952;47.122;-1.638;2023-03-23T11:11:48;23.83;;;3.97;;
19609;SDS011;9952;47.122;-1.638;2023-03-23T11:16:34;18.17;;;3.30;;
19609;SDS011;9952;47.122;-1.638;2023-03-23T11:21:23;20.00;;;4.10;;
19609;SDS011;9952;47.122;-1.638;2023-03-23T11:31:13;17.77;;;3.70;;
19609;SDS011;9952;47.122;-1.638;2023-03-23T11:35:54;19.13;;;4.33;;
19609;SDS011;9952;47.122;-1.638;2023-03-23T11:40:43;23.43;;;4.53;;
19609;SDS011;9952;47.122;-1.638;2023-03-23T11:45:35;20.70;;;4.13;;
19609;SDS011;9952;47.122;-1.638;2023-03-23T11:50:34;22.27;;;3.97;;
19609;SDS011;9952;47.122;-1.638;2023-03-23T11:55:32;30.03;;;4.60;;
19609;SDS011;9952;47.122;-1.638;2023-03-23T12:00:17;23.70;;;4.63;;
19609;SDS011;9952;47.122;-1.638;2023-03-23T12:20:11;25.93;;;4.00;;
19609;SDS011;9952;47.122;-1.638;2023-03-23T12:35:05;23.20;;;4.00;;
19609;SDS011;9952;47.122;-1.638;2023-03-23T12:45:21;17.27;;;3.33;;
19609;SDS011;9952;47.122;-1.638;2023-03-23T12:50:25;21.20;;;3.70;;
19609;SDS011;9952;47.122;-1.638;2023-03-23T13:15:18;23.20;;;4.03;;
19609;SDS011;9952;47.122;-1.638;2023-03-23T13:30:29;19.60;;;3.60;;
19609;SDS011;9952;47.122;-1.638;2023-03-23T13:35:13;16.10;;;2.90;;
19609;SDS011;9952;47.122;-1.638;2023-03-23T13:40:11;16.23;;;3.30;;
19609;SDS011;9952;47.122;-1.638;2023-03-23T13:45:05;12.07;;;2.73;;
19609;SDS011;9952;47.122;-1.638;2023-03-23T13:50:49;12.00;;;2.90;;
19609;SDS011;9952;47.122;-1.638;2023-03-23T13:55:17;12.63;;;2.27;;
19609;SDS011;9952;47.122;-1.638;2023-03-23T14:10:04;9.50;;;2.13;;
19609;SDS011;9952;47.122;-1.638;2023-03-23T14:14:48;10.50;;;2.43;;
19609;SDS011;9952;47.122;-1.638;2023-03-23T14:19:30;11.77;;;1.90;;
19609;SDS011;9952;47.122;-1.638;2023-03-23T14:24:12;7.83;;;1.97;;
19609;SDS011;9952;47.122;-1.638;2023-03-23T14:28:57;10.70;;;2.10;;
19609;SDS011;9952;47.122;-1.638;2023-03-23T14:33:39;8.20;;;1.83;;
19609;SDS011;9952;47.122;-1.638;2023-03-23T14:38:21;9.03;;;2.73;;
19609;SDS011;9952;47.122;-1.638;2023-03-23T14:43:08;10.57;;;2.40;;
19609;SDS011;9952;47.122;-1.638;2023-03-23T14:47:59;10.13;;;1.83;;
19609;SDS011;9952;47.122;-1.638;2023-03-23T14:52:42;9.07;;;1.90;;
19609;SDS011;9952;47.122;-1.638;2023-03-23T14:57:26;5.93;;;1.87;;
19609;SDS011;9952;47.122;-1.638;2023-03-23T15:02:12;6.47;;;1.90;;
19609;SDS011;9952;47.122;-1.638;2023-03-23T15:07:06;8.53;;;2.20;;
19609;SDS011;9952;47.122;-1.638;2023-03-23T15:11:56;9.03;;;2.03;;
19609;SDS011;9952;47.122;-1.638;2023-03-23T15:16:46;8.13;;;2.40;;
19609;SDS011;9952;47.122;-1.638;2023-03-23T15:21:30;8.37;;;2.13;;
19609;SDS011;9952;47.122;-1.638;2023-03-23T15:26:21;7.40;;;1.90;;
19609;SDS011;9952;47.122;-1.638;2023-03-23T15:31:11;8.30;;;1.90;;
19609;SDS011;9952;47.122;-1.638;2023-03-23T15:35:53;5.27;;;1.80;;
19609;SDS011;9952;47.122;-1.638;2023-03-23T15:40:36;9.97;;;2.40;;
19609;SDS011;9952;47.122;-1.638;2023-03-23T15:45:24;5.03;;;1.83;;
19609;SDS011;9952;47.122;-1.638;2023-03-23T15:50:39;7.63;;;2.10;;
19609;SDS011;9952;47.122;-1.638;2023-03-23T15:55:18;6.93;;;2.10;;
19609;SDS011;9952;47.122;-1.638;2023-03-23T16:00:03;6.17;;;1.80;;
19609;SDS011;9952;47.122;-1.638;2023-03-23T16:04:44;6.10;;;2.17;;
19609;SDS011;9952;47.122;-1.638;2023-03-23T16:09:25;6.30;;;2.23;;
19609;SDS011;9952;47.122;-1.638;2023-03-23T16:14:05;5.63;;;2.07;;
19609;SDS011;9952;47.122;-1.638;2023-03-23T16:18:46;5.70;;;1.90;;
19609;SDS011;9952;47.122;-1.638;2023-03-23T16:23:27;5.30;;;2.10;;
19609;SDS011;9952;47.122;-1.638;2023-03-23T16:28:11;5.67;;;1.80;;
19609;SDS011;9952;47.122;-1.638;2023-03-23T16:32:53;6.73;;;2.17;;
19609;SDS011;9952;47.122;-1.638;2023-03-23T16:37:34;12.00;;;4.50;;
19609;SDS011;9952;47.122;-1.638;2023-03-23T16:42:16;13.40;;;7.47;;
19609;SDS011;9952;47.122;-1.638;2023-03-23T16:46:57;14.30;;;6.70;;
19609;SDS011;9952;47.122;-1.638;2023-03-23T16:51:37;9.20;;;3.70;;
19609;SDS011;9952;47.122;-1.638;2023-03-23T16:56:18;6.80;;;2.47;;
19609;SDS011;9952;47.122;-1.638;2023-03-23T17:00:59;8.20;;;2.63;;
19609;SDS011;9952;47.122;-1.638;2023-03-23T17:05:40;5.67;;;2.33;;
19609;SDS011;9952;47.122;-1.638;2023-03-23T17:10:23;5.57;;;2.50;;
19609;SDS011;9952;47.122;-1.638;2023-03-23T17:15:06;6.50;;;2.37;;
19609;SDS011;9952;47.122;-1.638;2023-03-23T17:19:48;10.73;;;2.47;;
19609;SDS011;9952;47.122;-1.638;2023-03-23T17:24:28;6.90;;;2.60;;
19609;SDS011;9952;47.122;-1.638;2023-03-23T17:29:09;7.53;;;2.13;;
19609;SDS011;9952;47.122;-1.638;2023-03-23T17:33:50;9.53;;;3.43;;
19609;SDS011;9952;47.122;-1.638;2023-03-23T17:38:31;6.33;;;2.13;;
19609;SDS011;9952;47.122;-1.638;2023-03-23T17:43:12;7.30;;;2.20;;
19609;SDS011;9952;47.122;-1.638;2023-03-23T17:47:53;8.90;;;2.37;;
19609;SDS011;9952;47.122;-1.638;2023-03-23T17:52:34;5.17;;;2.33;;
19609;SDS011;9952;47.122;-1.638;2023-03-23T17:57:15;6.03;;;1.73;;
19609;SDS011;9952;47.122;-1.638;2023-03-23T18:01:56;9.77;;;1.90;;
19609;SDS011;9952;47.122;-1.638;2023-03-23T18:06:37;6.20;;;1.90;;
19609;SDS011;9952;47.122;-1.638;2023-03-23T18:11:18;4.83;;;1.53;;
19609;SDS011;9952;47.122;-1.638;2023-03-23T18:15:59;5.73;;;2.27;;
19609;SDS011;9952;47.122;-1.638;2023-03-23T18:20:40;4.50;;;1.60;;
19609;SDS011;9952;47.122;-1.638;2023-03-23T18:25:21;3.87;;;1.60;;
19609;SDS011;9952;47.122;-1.638;2023-03-23T18:30:02;5.60;;;1.80;;
19609;SDS011;9952;47.122;-1.638;2023-03-23T18:34:43;1.93;;;1.73;;
19609;SDS011;9952;47.122;-1.638;2023-03-23T18:39:25;7.07;;;1.83;;
19609;SDS011;9952;47.122;-1.638;2023-03-23T18:44:06;3.27;;;1.73;;
19609;SDS011;9952;47.122;-1.638;2023-03-23T18:48:47;6.43;;;2.20;;
19609;SDS011;9952;47.122;-1.638;2023-03-23T18:53:28;7.17;;;1.83;;
19609;SDS011;9952;47.122;-1.638;2023-03-23T18:58:11;6.77;;;1.77;;
19609;SDS011;9952;47.122;-1.638;2023-03-23T19:02:53;3.00;;;1.60;;
19609;SDS011;9952;47.122;-1.638;2023-03-23T19:07:34;4.57;;;1.70;;
19609;SDS011;9952;47.122;-1.638;2023-03-23T19:12:17;2.03;;;1.67;;
19609;SDS011;9952;47.122;-1.638;2023-03-23T19:16:57;6.87;;;2.03;;
19609;SDS011;9952;47.122;-1.638;2023-03-23T19:21:38;5.33;;;2.10;;
19609;SDS011;9952;47.122;-1.638;2023-03-23T19:26:23;8.47;;;2.00;;
19609;SDS011;9952;47.122;-1.638;2023-03-23T19:31:17;4.70;;;2.37;;
19609;SDS011;9952;47.122;-1.638;2023-03-23T19:36:01;6.00;;;2.33;;
19609;SDS011;9952;47.122;-1.638;2023-03-23T19:40:47;5.17;;;2.17;;
19609;SDS011;9952;47.122;-1.638;2023-03-23T19:45:31;12.77;;;4.33;;
19609;SDS011;9952;47.122;-1.638;2023-03-23T19:50:11;5.70;;;3.13;;
19609;SDS011;9952;47.122;-1.638;2023-03-23T19:54:53;6.80;;;2.47;;
19609;SDS011;9952;47.122;-1.638;2023-03-23T19:59:34;5.50;;;2.13;;
19609;SDS011;9952;47.122;-1.638;2023-03-23T20:04:16;6.77;;;2.30;;
19609;SDS011;9952;47.122;-1.638;2023-03-23T20:08:57;7.83;;;2.00;;
19609;SDS011;9952;47.122;-1.638;2023-03-23T20:13:39;7.07;;;2.50;;
19609;SDS011;9952;47.122;-1.638;2023-03-23T20:18:20;7.53;;;2.20;;
19609;SDS011;9952;47.122;-1.638;2023-03-23T20:23:01;7.30;;;2.57;;
19609;SDS011;9952;47.122;-1.638;2023-03-23T20:27:43;9.33;;;2.00;;
19609;SDS011;9952;47.122;-1.638;2023-03-23T20:32:25;14.47;;;2.40;;
19609;SDS011;9952;47.122;-1.638;2023-03-23T20:37:09;7.23;;;2.20;;
19609;SDS011;9952;47.122;-1.638;2023-03-23T20:41:55;7.83;;;2.63;;
19609;SDS011;9952;47.122;-1.638;2023-03-23T20:46:45;12.50;;;3.27;;
19609;SDS011;9952;47.122;-1.638;2023-03-23T20:51:27;15.67;;;2.23;;
19609;SDS011;9952;47.122;-1.638;2023-03-23T20:56:08;10.97;;;2.47;;
19609;SDS011;9952;47.122;-1.638;2023-03-23T21:00:52;20.20;;;3.10;;
19609;SDS011;9952;47.122;-1.638;2023-03-23T21:05:39;10.27;;;2.70;;
19609;SDS011;9952;47.122;-1.638;2023-03-23T21:10:20;16.13;;;2.60;;
19609;SDS011;9952;47.122;-1.638;2023-03-23T21:15:04;12.50;;;2.30;;
19609;SDS011;9952;47.122;-1.638;2023-03-23T21:19:45;18.00;;;2.37;;
19609;SDS011;9952;47.122;-1.638;2023-03-23T21:24:27;12.73;;;2.37;;
19609;SDS011;9952;47.122;-1.638;2023-03-23T21:29:09;12.23;;;2.10;;
19609;SDS011;9952;47.122;-1.638;2023-03-23T21:33:50;14.00;;;2.30;;
19609;SDS011;9952;47.122;-1.638;2023-03-23T21:38:31;14.90;;;2.23;;
19609;SDS011;9952;47.122;-1.638;2023-03-23T21:43:12;10.77;;;1.70;;
19609;SDS011;9952;47.122;-1.638;2023-03-23T21:47:55;16.07;;;2.67;;
19609;SDS011;9952;47.122;-1.638;2023-03-23T21:52:37;19.00;;;2.33;;
19609;SDS011;9952;47.122;-1.638;2023-03-23T21:57:18;17.57;;;2.77;;
19609;SDS011;9952;47.122;-1.638;2023-03-23T22:01:59;16.33;;;2.93;;
19609;SDS011;9952;47.122;-1.638;2023-03-23T22:06:41;13.90;;;2.60;;
19609;SDS011;9952;47.122;-1.638;2023-03-23T22:11:23;18.50;;;2.60;;
19609;SDS011;9952;47.122;-1.638;2023-03-23T22:16:07;18.97;;;3.30;;
19609;SDS011;9952;47.122;-1.638;2023-03-23T22:20:50;13.33;;;2.30;;
19609;SDS011;9952;47.122;-1.638;2023-03-23T22:25:31;17.63;;;2.63;;
19609;SDS011;9952;47.122;-1.638;2023-03-23T22:30:13;20.67;;;2.80;;
19609;SDS011;9952;47.122;-1.638;2023-03-23T22:34:55;19.63;;;2.40;;
19609;SDS011;9952;47.122;-1.638;2023-03-23T22:39:36;24.67;;;3.00;;
19609;SDS011;9952;47.122;-1.638;2023-03-23T22:44:16;25.73;;;3.80;;
19609;SDS011;9952;47.122;-1.638;2023-03-23T22:48:58;20.03;;;3.93;;
19609;SDS011;9952;47.122;-1.638;2023-03-23T22:53:39;19.90;;;3.17;;
19609;SDS011;9952;47.122;-1.638;2023-03-23T22:58:20;22.73;;;2.93;;
19609;SDS011;9952;47.122;-1.638;2023-03-23T23:03:01;19.23;;;2.90;;
19609;SDS011;9952;47.122;-1.638;2023-03-23T23:07:42;18.97;;;2.50;;
19609;SDS011;9952;47.122;-1.638;2023-03-23T23:12:22;18.93;;;2.77;;
19609;SDS011;9952;47.122;-1.638;2023-03-23T23:17:04;19.30;;;2.57;;
19609;SDS011;9952;47.122;-1.638;2023-03-23T23:21:45;19.83;;;2.60;;
19609;SDS011;9952;47.122;-1.638;2023-03-23T23:26:26;18.83;;;2.33;;
19609;SDS011;9952;47.122;-1.638;2023-03-23T23:31:40;20.57;;;2.57;;
19609;SDS011;9952;47.122;-1.638;2023-03-23T23:36:14;23.73;;;2.93;;
19609;SDS011;9952;47.122;-1.638;2023-03-23T23:40:57;28.30;;;3.80;;
19609;SDS011;9952;47.122;-1.638;2023-03-23T23:45:38;24.03;;;4.00;;
19609;SDS011;9952;47.122;-1.638;2023-03-23T23:50:19;27.50;;;2.90;;
19609;SDS011;9952;47.122;-1.638;2023-03-23T23:55:00;24.63;;;3.43;;
19609;SDS011;9952;47.122;-1.638;2023-03-23T23:59:42;22.87;;;3.30;;
